sensor_id;sensor_type;location;lat;lon;timestamp;temperature;humidity
3300;DHT22;1662;49.310;8.134;2024-03-08T00:01:06;6.80;99.90
3300;DHT22;1662;49.310;8.134;2024-03-08T00:03:32;6.70;99.90
3300;DHT22;1662;49.310;8.134;2024-03-08T00:05:58;6.70;99.90
3300;DHT22;1662;49.310;8.134;2024-03-08T00:08:26;6.70;99.90
3300;DHT22;1662;49.310;8.134;2024-03-08T00:10:54;6.70;99.90
3300;DHT22;1662;49.310;8.134;2024-03-08T00:13:19;6.70;99.90
3300;DHT22;1662;49.310;8.134;2024-03-08T00:15:45;6.60;99.90
3300;DHT22;1662;49.310;8.134;2024-03-08T00:18:11;6.60;99.90
3300;DHT22;1662;49.310;8.134;2024-03-08T00:20:37;6.60;99.90
3300;DHT22;1662;49.310;8.134;2024-03-08T00:23:03;6.50;99.90
3300;DHT22;1662;49.310;8.134;2024-03-08T00:25:28;6.50;99.90
3300;DHT22;1662;49.310;8.134;2024-03-08T00:27:54;6.50;99.90
3300;DHT22;1662;49.310;8.134;2024-03-08T00:30:22;6.40;99.90
3300;DHT22;1662;49.310;8.134;2024-03-08T00:32:50;6.40;99.90
3300;DHT22;1662;49.310;8.134;2024-03-08T00:35:16;6.40;99.90
3300;DHT22;1662;49.310;8.134;2024-03-08T00:37:42;6.30;99.90
3300;DHT22;1662;49.310;8.134;2024-03-08T00:40:10;6.30;99.90
3300;DHT22;1662;49.310;8.134;2024-03-08T00:42:38;6.20;99.90
3300;DHT22;1662;49.310;8.134;2024-03-08T00:45:06;6.20;99.90
3300;DHT22;1662;49.310;8.134;2024-03-08T00:47:35;6.20;99.90
3300;DHT22;1662;49.310;8.134;2024-03-08T00:50:00;6.20;99.90
3300;DHT22;1662;49.310;8.134;2024-03-08T00:52:29;6.20;99.90
3300;DHT22;1662;49.310;8.134;2024-03-08T00:54:55;6.20;99.90
3300;DHT22;1662;49.310;8.134;2024-03-08T00:57:23;6.20;99.90
3300;DHT22;1662;49.310;8.134;2024-03-08T00:59:48;6.20;99.90
3300;DHT22;1662;49.310;8.134;2024-03-08T01:02:18;6.20;99.90
3300;DHT22;1662;49.310;8.134;2024-03-08T01:04:44;6.10;99.90
3300;DHT22;1662;49.310;8.134;2024-03-08T01:07:10;6.10;99.90
3300;DHT22;1662;49.310;8.134;2024-03-08T01:09:36;6.10;99.90
3300;DHT22;1662;49.310;8.134;2024-03-08T01:12:01;6.00;99.90
3300;DHT22;1662;49.310;8.134;2024-03-08T01:14:27;6.00;99.90
3300;DHT22;1662;49.310;8.134;2024-03-08T01:16:54;5.90;99.90
3300;DHT22;1662;49.310;8.134;2024-03-08T01:19:20;5.80;99.90
3300;DHT22;1662;49.310;8.134;2024-03-08T01:21:46;5.80;99.90
3300;DHT22;1662;49.310;8.134;2024-03-08T01:24:15;5.60;99.90
3300;DHT22;1662;49.310;8.134;2024-03-08T01:26:40;5.60;99.90
3300;DHT22;1662;49.310;8.134;2024-03-08T01:29:06;5.60;99.90
3300;DHT22;1662;49.310;8.134;2024-03-08T01:31:31;5.60;99.90
3300;DHT22;1662;49.310;8.134;2024-03-08T01:33:58;5.50;99.90
3300;DHT22;1662;49.310;8.134;2024-03-08T01:36:26;5.40;99.90
3300;DHT22;1662;49.310;8.134;2024-03-08T01:38:52;5.40;99.90
3300;DHT22;1662;49.310;8.134;2024-03-08T01:41:18;5.30;99.90
3300;DHT22;1662;49.310;8.134;2024-03-08T01:43:44;5.30;99.90
3300;DHT22;1662;49.310;8.134;2024-03-08T01:46:12;5.20;99.90
3300;DHT22;1662;49.310;8.134;2024-03-08T01:48:41;5.20;99.90
3300;DHT22;1662;49.310;8.134;2024-03-08T01:51:07;5.20;99.90
3300;DHT22;1662;49.310;8.134;2024-03-08T01:53:33;5.20;99.90
3300;DHT22;1662;49.310;8.134;2024-03-08T01:56:00;5.10;99.90
3300;DHT22;1662;49.310;8.134;2024-03-08T01:58:27;5.10;99.90
3300;DHT22;1662;49.310;8.134;2024-03-08T02:00:57;5.00;99.90
3300;DHT22;1662;49.310;8.134;2024-03-08T02:03:28;5.00;99.90
3300;DHT22;1662;49.310;8.134;2024-03-08T02:05:56;4.90;99.90
3300;DHT22;1662;49.310;8.134;2024-03-08T02:08:21;4.90;99.90
3300;DHT22;1662;49.310;8.134;2024-03-08T02:10:49;4.90;99.90
3300;DHT22;1662;49.310;8.134;2024-03-08T02:13:16;4.90;99.90
3300;DHT22;1662;49.310;8.134;2024-03-08T02:15:54;4.80;99.90
3300;DHT22;1662;49.310;8.134;2024-03-08T02:18:21;4.80;99.90
3300;DHT22;1662;49.310;8.134;2024-03-08T02:23:21;4.70;99.90
3300;DHT22;1662;49.310;8.134;2024-03-08T02:25:50;4.80;99.90
3300;DHT22;1662;49.310;8.134;2024-03-08T02:28:16;4.80;99.90
3300;DHT22;1662;49.310;8.134;2024-03-08T02:30:48;4.80;99.90
3300;DHT22;1662;49.310;8.134;2024-03-08T02:33:15;4.70;99.90
3300;DHT22;1662;49.310;8.134;2024-03-08T02:35:44;4.70;99.90
3300;DHT22;1662;49.310;8.134;2024-03-08T02:38:19;4.70;99.90
3300;DHT22;1662;49.310;8.134;2024-03-08T02:40:47;4.60;99.90
3300;DHT22;1662;49.310;8.134;2024-03-08T02:43:13;4.60;99.90
3300;DHT22;1662;49.310;8.134;2024-03-08T02:45:43;4.60;99.90
3300;DHT22;1662;49.310;8.134;2024-03-08T02:48:09;4.60;99.90
3300;DHT22;1662;49.310;8.134;2024-03-08T02:50:35;4.60;99.90
3300;DHT22;1662;49.310;8.134;2024-03-08T02:53:01;4.60;99.90
3300;DHT22;1662;49.310;8.134;2024-03-08T02:55:27;4.70;99.90
3300;DHT22;1662;49.310;8.134;2024-03-08T02:57:53;4.60;99.90
3300;DHT22;1662;49.310;8.134;2024-03-08T03:00:22;4.60;99.90
3300;DHT22;1662;49.310;8.134;2024-03-08T03:02:52;4.60;99.90
3300;DHT22;1662;49.310;8.134;2024-03-08T03:05:21;4.60;99.90
3300;DHT22;1662;49.310;8.134;2024-03-08T03:07:46;4.50;99.90
3300;DHT22;1662;49.310;8.134;2024-03-08T03:10:13;4.50;99.90
3300;DHT22;1662;49.310;8.134;2024-03-08T03:12:40;4.40;99.90
3300;DHT22;1662;49.310;8.134;2024-03-08T03:15:06;4.40;99.90
3300;DHT22;1662;49.310;8.134;2024-03-08T03:17:32;4.40;99.90
3300;DHT22;1662;49.310;8.134;2024-03-08T03:19:57;4.40;99.90
3300;DHT22;1662;49.310;8.134;2024-03-08T03:22:23;4.40;99.90
3300;DHT22;1662;49.310;8.134;2024-03-08T03:24:51;4.40;99.90
3300;DHT22;1662;49.310;8.134;2024-03-08T03:27:17;4.30;99.90
3300;DHT22;1662;49.310;8.134;2024-03-08T03:29:44;4.30;99.90
3300;DHT22;1662;49.310;8.134;2024-03-08T03:32:13;4.30;99.90
3300;DHT22;1662;49.310;8.134;2024-03-08T03:34:42;4.30;99.90
3300;DHT22;1662;49.310;8.134;2024-03-08T03:37:09;4.20;99.90
3300;DHT22;1662;49.310;8.134;2024-03-08T03:39:38;4.20;99.90
3300;DHT22;1662;49.310;8.134;2024-03-08T03:42:15;4.10;99.90
3300;DHT22;1662;49.310;8.134;2024-03-08T03:44:40;4.00;99.90
3300;DHT22;1662;49.310;8.134;2024-03-08T03:47:09;4.00;99.90
3300;DHT22;1662;49.310;8.134;2024-03-08T03:49:34;3.90;99.90
3300;DHT22;1662;49.310;8.134;2024-03-08T03:52:00;3.90;99.90
3300;DHT22;1662;49.310;8.134;2024-03-08T03:54:25;3.80;99.90
3300;DHT22;1662;49.310;8.134;2024-03-08T03:56:51;3.80;99.90
3300;DHT22;1662;49.310;8.134;2024-03-08T03:59:19;3.90;99.90
3300;DHT22;1662;49.310;8.134;2024-03-08T04:01:44;3.80;99.90
3300;DHT22;1662;49.310;8.134;2024-03-08T04:04:10;3.80;99.90
3300;DHT22;1662;49.310;8.134;2024-03-08T04:06:38;3.70;99.90
3300;DHT22;1662;49.310;8.134;2024-03-08T04:09:04;3.70;99.90
3300;DHT22;1662;49.310;8.134;2024-03-08T04:11:30;3.80;99.90
3300;DHT22;1662;49.310;8.134;2024-03-08T04:13:56;3.70;99.90
3300;DHT22;1662;49.310;8.134;2024-03-08T04:16:21;3.70;99.90
3300;DHT22;1662;49.310;8.134;2024-03-08T04:18:47;3.60;99.90
3300;DHT22;1662;49.310;8.134;2024-03-08T04:21:15;3.60;99.90
3300;DHT22;1662;49.310;8.134;2024-03-08T04:23:41;3.60;99.90
3300;DHT22;1662;49.310;8.134;2024-03-08T04:26:07;3.50;99.90
3300;DHT22;1662;49.310;8.134;2024-03-08T04:28:32;3.50;99.90
3300;DHT22;1662;49.310;8.134;2024-03-08T04:30:58;3.50;99.90
3300;DHT22;1662;49.310;8.134;2024-03-08T04:33:26;3.50;99.90
3300;DHT22;1662;49.310;8.134;2024-03-08T04:35:52;3.40;99.90
3300;DHT22;1662;49.310;8.134;2024-03-08T04:38:18;3.40;99.90
3300;DHT22;1662;49.310;8.134;2024-03-08T04:40:46;3.40;99.90
3300;DHT22;1662;49.310;8.134;2024-03-08T04:43:12;3.40;99.90
3300;DHT22;1662;49.310;8.134;2024-03-08T04:45:38;3.40;99.90
3300;DHT22;1662;49.310;8.134;2024-03-08T04:48:04;3.50;99.90
3300;DHT22;1662;49.310;8.134;2024-03-08T04:50:30;3.40;99.90
3300;DHT22;1662;49.310;8.134;2024-03-08T04:52:56;3.40;99.90
3300;DHT22;1662;49.310;8.134;2024-03-08T04:55:21;3.50;99.90
3300;DHT22;1662;49.310;8.134;2024-03-08T04:57:53;3.50;99.90
3300;DHT22;1662;49.310;8.134;2024-03-08T05:00:18;3.50;99.90
3300;DHT22;1662;49.310;8.134;2024-03-08T05:02:44;3.50;99.90
3300;DHT22;1662;49.310;8.134;2024-03-08T05:05:10;3.40;99.90
3300;DHT22;1662;49.310;8.134;2024-03-08T05:07:39;3.40;99.90
3300;DHT22;1662;49.310;8.134;2024-03-08T05:10:06;3.30;99.90
3300;DHT22;1662;49.310;8.134;2024-03-08T05:12:35;3.30;99.90
3300;DHT22;1662;49.310;8.134;2024-03-08T05:15:03;3.20;99.90
3300;DHT22;1662;49.310;8.134;2024-03-08T05:17:30;3.20;99.90
3300;DHT22;1662;49.310;8.134;2024-03-08T05:19:56;3.20;99.90
3300;DHT22;1662;49.310;8.134;2024-03-08T05:22:22;3.20;99.90
3300;DHT22;1662;49.310;8.134;2024-03-08T05:24:47;3.20;99.90
3300;DHT22;1662;49.310;8.134;2024-03-08T05:27:13;3.20;99.90
3300;DHT22;1662;49.310;8.134;2024-03-08T05:29:39;3.20;99.90
3300;DHT22;1662;49.310;8.134;2024-03-08T05:32:04;3.20;99.90
3300;DHT22;1662;49.310;8.134;2024-03-08T05:34:30;3.10;99.90
3300;DHT22;1662;49.310;8.134;2024-03-08T05:36:56;3.10;99.90
3300;DHT22;1662;49.310;8.134;2024-03-08T05:39:23;3.10;99.90
3300;DHT22;1662;49.310;8.134;2024-03-08T05:41:49;3.10;99.90
3300;DHT22;1662;49.310;8.134;2024-03-08T05:44:16;3.10;99.90
3300;DHT22;1662;49.310;8.134;2024-03-08T05:46:44;3.20;99.90
3300;DHT22;1662;49.310;8.134;2024-03-08T05:49:11;3.20;99.90
3300;DHT22;1662;49.310;8.134;2024-03-08T05:51:40;3.20;99.90
3300;DHT22;1662;49.310;8.134;2024-03-08T05:54:11;3.20;99.90
3300;DHT22;1662;49.310;8.134;2024-03-08T05:56:38;3.10;99.90
3300;DHT22;1662;49.310;8.134;2024-03-08T05:59:03;3.30;99.90
3300;DHT22;1662;49.310;8.134;2024-03-08T06:01:29;3.40;99.90
3300;DHT22;1662;49.310;8.134;2024-03-08T06:03:56;3.50;99.90
3300;DHT22;1662;49.310;8.134;2024-03-08T06:06:23;3.60;99.90
3300;DHT22;1662;49.310;8.134;2024-03-08T06:08:49;3.50;99.90
3300;DHT22;1662;49.310;8.134;2024-03-08T06:11:16;3.40;99.90
3300;DHT22;1662;49.310;8.134;2024-03-08T06:13:49;3.30;99.90
3300;DHT22;1662;49.310;8.134;2024-03-08T06:16:15;3.20;99.90
3300;DHT22;1662;49.310;8.134;2024-03-08T06:18:41;3.20;99.90
3300;DHT22;1662;49.310;8.134;2024-03-08T06:21:07;3.10;99.90
3300;DHT22;1662;49.310;8.134;2024-03-08T06:23:41;3.10;99.90
3300;DHT22;1662;49.310;8.134;2024-03-08T06:26:13;3.10;99.90
3300;DHT22;1662;49.310;8.134;2024-03-08T06:28:38;3.10;99.90
3300;DHT22;1662;49.310;8.134;2024-03-08T06:31:04;3.10;99.90
3300;DHT22;1662;49.310;8.134;2024-03-08T06:33:31;3.10;99.90
3300;DHT22;1662;49.310;8.134;2024-03-08T06:35:58;3.10;99.90
3300;DHT22;1662;49.310;8.134;2024-03-08T06:38:26;3.20;99.90
3300;DHT22;1662;49.310;8.134;2024-03-08T06:40:52;3.20;99.90
3300;DHT22;1662;49.310;8.134;2024-03-08T06:43:19;3.20;99.90
3300;DHT22;1662;49.310;8.134;2024-03-08T06:45:45;3.30;99.90
3300;DHT22;1662;49.310;8.134;2024-03-08T06:48:15;3.30;99.90
3300;DHT22;1662;49.310;8.134;2024-03-08T06:50:45;3.40;99.90
3300;DHT22;1662;49.310;8.134;2024-03-08T06:53:12;3.40;99.90
3300;DHT22;1662;49.310;8.134;2024-03-08T06:55:39;3.50;99.90
3300;DHT22;1662;49.310;8.134;2024-03-08T06:58:04;3.50;99.90
3300;DHT22;1662;49.310;8.134;2024-03-08T07:00:30;3.50;99.90
3300;DHT22;1662;49.310;8.134;2024-03-08T07:02:56;3.60;99.90
3300;DHT22;1662;49.310;8.134;2024-03-08T07:05:29;3.50;99.90
3300;DHT22;1662;49.310;8.134;2024-03-08T07:07:55;3.60;99.90
3300;DHT22;1662;49.310;8.134;2024-03-08T07:10:24;3.70;99.90
3300;DHT22;1662;49.310;8.134;2024-03-08T07:12:51;3.70;99.90
3300;DHT22;1662;49.310;8.134;2024-03-08T07:15:17;3.80;99.90
3300;DHT22;1662;49.310;8.134;2024-03-08T07:17:45;3.80;99.90
3300;DHT22;1662;49.310;8.134;2024-03-08T07:20:11;3.90;99.90
3300;DHT22;1662;49.310;8.134;2024-03-08T07:22:41;4.00;99.90
3300;DHT22;1662;49.310;8.134;2024-03-08T07:25:08;4.00;99.90
3300;DHT22;1662;49.310;8.134;2024-03-08T07:27:45;4.00;99.90
3300;DHT22;1662;49.310;8.134;2024-03-08T07:30:11;4.10;99.90
3300;DHT22;1662;49.310;8.134;2024-03-08T07:32:37;4.20;99.90
3300;DHT22;1662;49.310;8.134;2024-03-08T07:35:03;4.20;99.90
3300;DHT22;1662;49.310;8.134;2024-03-08T07:37:30;4.30;99.90
3300;DHT22;1662;49.310;8.134;2024-03-08T07:39:56;4.30;99.90
3300;DHT22;1662;49.310;8.134;2024-03-08T07:42:23;4.30;99.90
3300;DHT22;1662;49.310;8.134;2024-03-08T07:44:49;4.40;99.90
3300;DHT22;1662;49.310;8.134;2024-03-08T07:47:18;4.40;99.90
3300;DHT22;1662;49.310;8.134;2024-03-08T07:49:43;4.50;99.90
3300;DHT22;1662;49.310;8.134;2024-03-08T07:52:09;4.50;99.90
3300;DHT22;1662;49.310;8.134;2024-03-08T07:54:40;4.60;99.90
3300;DHT22;1662;49.310;8.134;2024-03-08T07:57:06;4.70;99.90
3300;DHT22;1662;49.310;8.134;2024-03-08T07:59:32;4.70;99.90
3300;DHT22;1662;49.310;8.134;2024-03-08T08:01:58;4.70;99.90
3300;DHT22;1662;49.310;8.134;2024-03-08T08:04:25;4.70;99.90
3300;DHT22;1662;49.310;8.134;2024-03-08T08:06:53;4.80;99.90
3300;DHT22;1662;49.310;8.134;2024-03-08T08:09:21;4.90;99.90
3300;DHT22;1662;49.310;8.134;2024-03-08T08:12:00;4.90;99.90
3300;DHT22;1662;49.310;8.134;2024-03-08T08:14:28;4.90;99.90
3300;DHT22;1662;49.310;8.134;2024-03-08T08:16:57;5.00;99.90
3300;DHT22;1662;49.310;8.134;2024-03-08T08:19:23;5.10;99.90
3300;DHT22;1662;49.310;8.134;2024-03-08T08:21:53;5.20;99.90
3300;DHT22;1662;49.310;8.134;2024-03-08T08:24:19;5.30;99.90
3300;DHT22;1662;49.310;8.134;2024-03-08T08:26:47;5.40;99.90
3300;DHT22;1662;49.310;8.134;2024-03-08T08:29:15;5.40;99.90
3300;DHT22;1662;49.310;8.134;2024-03-08T08:31:41;5.40;99.90
3300;DHT22;1662;49.310;8.134;2024-03-08T08:34:11;5.50;99.90
3300;DHT22;1662;49.310;8.134;2024-03-08T08:36:37;5.50;99.90
3300;DHT22;1662;49.310;8.134;2024-03-08T08:39:04;5.50;99.90
3300;DHT22;1662;49.310;8.134;2024-03-08T08:41:30;5.60;99.90
3300;DHT22;1662;49.310;8.134;2024-03-08T08:43:57;5.60;99.90
3300;DHT22;1662;49.310;8.134;2024-03-08T08:46:22;5.60;99.90
3300;DHT22;1662;49.310;8.134;2024-03-08T08:48:48;5.60;99.90
3300;DHT22;1662;49.310;8.134;2024-03-08T08:51:16;5.60;99.90
3300;DHT22;1662;49.310;8.134;2024-03-08T08:53:42;5.60;99.90
3300;DHT22;1662;49.310;8.134;2024-03-08T08:56:09;5.60;99.90
3300;DHT22;1662;49.310;8.134;2024-03-08T08:58:34;5.60;99.90
3300;DHT22;1662;49.310;8.134;2024-03-08T09:01:00;5.60;99.90
3300;DHT22;1662;49.310;8.134;2024-03-08T09:03:29;5.60;99.90
3300;DHT22;1662;49.310;8.134;2024-03-08T09:05:55;5.70;99.90
3300;DHT22;1662;49.310;8.134;2024-03-08T09:08:21;5.70;99.90
3300;DHT22;1662;49.310;8.134;2024-03-08T09:10:47;5.70;99.90
3300;DHT22;1662;49.310;8.134;2024-03-08T09:13:14;5.70;99.90
3300;DHT22;1662;49.310;8.134;2024-03-08T09:15:42;5.70;99.90
3300;DHT22;1662;49.310;8.134;2024-03-08T09:18:08;5.70;99.90
3300;DHT22;1662;49.310;8.134;2024-03-08T09:20:34;5.80;99.90
3300;DHT22;1662;49.310;8.134;2024-03-08T09:23:00;5.80;99.90
3300;DHT22;1662;49.310;8.134;2024-03-08T09:25:26;5.90;99.90
3300;DHT22;1662;49.310;8.134;2024-03-08T09:27:51;5.90;99.90
3300;DHT22;1662;49.310;8.134;2024-03-08T09:30:17;5.90;99.90
3300;DHT22;1662;49.310;8.134;2024-03-08T09:32:43;5.90;99.90
3300;DHT22;1662;49.310;8.134;2024-03-08T09:35:11;6.00;99.90
3300;DHT22;1662;49.310;8.134;2024-03-08T09:37:37;6.00;99.90
3300;DHT22;1662;49.310;8.134;2024-03-08T09:40:06;5.90;99.90
3300;DHT22;1662;49.310;8.134;2024-03-08T09:42:35;5.90;99.90
3300;DHT22;1662;49.310;8.134;2024-03-08T09:45:11;5.90;99.90
3300;DHT22;1662;49.310;8.134;2024-03-08T09:47:41;6.00;99.90
3300;DHT22;1662;49.310;8.134;2024-03-08T09:50:09;6.00;99.90
3300;DHT22;1662;49.310;8.134;2024-03-08T09:52:41;6.00;99.90
3300;DHT22;1662;49.310;8.134;2024-03-08T09:55:10;6.00;99.90
3300;DHT22;1662;49.310;8.134;2024-03-08T09:57:43;5.90;99.90
3300;DHT22;1662;49.310;8.134;2024-03-08T10:00:31;6.00;99.90
3300;DHT22;1662;49.310;8.134;2024-03-08T10:03:01;6.10;99.90
3300;DHT22;1662;49.310;8.134;2024-03-08T10:05:27;6.10;99.90
3300;DHT22;1662;49.310;8.134;2024-03-08T10:07:53;6.00;99.90
3300;DHT22;1662;49.310;8.134;2024-03-08T10:10:18;6.00;99.90
3300;DHT22;1662;49.310;8.134;2024-03-08T10:12:45;6.00;99.90
3300;DHT22;1662;49.310;8.134;2024-03-08T10:15:11;6.00;99.90
3300;DHT22;1662;49.310;8.134;2024-03-08T10:17:38;6.00;99.90
3300;DHT22;1662;49.310;8.134;2024-03-08T10:20:17;6.00;99.90
3300;DHT22;1662;49.310;8.134;2024-03-08T10:22:43;6.00;99.90
3300;DHT22;1662;49.310;8.134;2024-03-08T10:25:12;6.00;99.90
3300;DHT22;1662;49.310;8.134;2024-03-08T10:27:39;6.00;99.90
3300;DHT22;1662;49.310;8.134;2024-03-08T10:30:14;6.00;99.90
3300;DHT22;1662;49.310;8.134;2024-03-08T10:32:40;6.00;99.90
3300;DHT22;1662;49.310;8.134;2024-03-08T10:35:09;6.00;99.90
3300;DHT22;1662;49.310;8.134;2024-03-08T10:37:45;6.10;99.90
3300;DHT22;1662;49.310;8.134;2024-03-08T10:40:16;6.10;99.90
3300;DHT22;1662;49.310;8.134;2024-03-08T10:42:53;6.20;99.90
3300;DHT22;1662;49.310;8.134;2024-03-08T10:50:53;6.20;99.90
3300;DHT22;1662;49.310;8.134;2024-03-08T10:53:19;6.10;99.90
3300;DHT22;1662;49.310;8.134;2024-03-08T10:55:46;6.10;99.90
3300;DHT22;1662;49.310;8.134;2024-03-08T10:58:12;6.20;99.90
3300;DHT22;1662;49.310;8.134;2024-03-08T11:00:38;6.20;99.90
3300;DHT22;1662;49.310;8.134;2024-03-08T11:03:04;6.30;99.90
3300;DHT22;1662;49.310;8.134;2024-03-08T11:05:40;6.30;99.90
3300;DHT22;1662;49.310;8.134;2024-03-08T11:08:18;6.40;99.90
3300;DHT22;1662;49.310;8.134;2024-03-08T11:10:48;6.40;99.90
3300;DHT22;1662;49.310;8.134;2024-03-08T11:18:53;6.40;99.90
3300;DHT22;1662;49.310;8.134;2024-03-08T11:21:19;6.50;99.90
3300;DHT22;1662;49.310;8.134;2024-03-08T11:23:59;6.50;99.90
3300;DHT22;1662;49.310;8.134;2024-03-08T11:26:25;6.50;99.90
3300;DHT22;1662;49.310;8.134;2024-03-08T11:28:51;6.60;99.90
3300;DHT22;1662;49.310;8.134;2024-03-08T11:33:47;6.60;99.90
3300;DHT22;1662;49.310;8.134;2024-03-08T11:36:23;6.60;99.90
3300;DHT22;1662;49.310;8.134;2024-03-08T11:38:50;6.60;99.90
3300;DHT22;1662;49.310;8.134;2024-03-08T11:41:19;6.70;99.90
3300;DHT22;1662;49.310;8.134;2024-03-08T11:43:48;6.70;99.90
3300;DHT22;1662;49.310;8.134;2024-03-08T11:46:17;6.70;99.90
3300;DHT22;1662;49.310;8.134;2024-03-08T11:48:44;6.70;99.90
3300;DHT22;1662;49.310;8.134;2024-03-08T11:51:14;6.70;99.90
3300;DHT22;1662;49.310;8.134;2024-03-08T11:53:40;6.80;99.90
3300;DHT22;1662;49.310;8.134;2024-03-08T11:56:11;6.80;99.90
3300;DHT22;1662;49.310;8.134;2024-03-08T11:58:38;6.80;99.90
3300;DHT22;1662;49.310;8.134;2024-03-08T12:01:08;6.90;99.90
3300;DHT22;1662;49.310;8.134;2024-03-08T12:03:42;6.90;99.90
3300;DHT22;1662;49.310;8.134;2024-03-08T12:06:09;7.00;99.90
3300;DHT22;1662;49.310;8.134;2024-03-08T12:08:40;7.00;99.90
3300;DHT22;1662;49.310;8.134;2024-03-08T12:11:05;7.00;99.90
3300;DHT22;1662;49.310;8.134;2024-03-08T12:13:33;7.00;99.90
3300;DHT22;1662;49.310;8.134;2024-03-08T12:16:02;7.00;99.90
3300;DHT22;1662;49.310;8.134;2024-03-08T12:18:33;7.00;99.90
3300;DHT22;1662;49.310;8.134;2024-03-08T12:21:12;7.10;99.90
3300;DHT22;1662;49.310;8.134;2024-03-08T12:23:45;7.10;99.90
3300;DHT22;1662;49.310;8.134;2024-03-08T12:26:14;7.10;99.90
3300;DHT22;1662;49.310;8.134;2024-03-08T12:28:41;7.30;99.90
3300;DHT22;1662;49.310;8.134;2024-03-08T12:31:08;7.40;99.90
3300;DHT22;1662;49.310;8.134;2024-03-08T12:33:47;7.40;99.90
3300;DHT22;1662;49.310;8.134;2024-03-08T12:36:16;7.50;99.90
3300;DHT22;1662;49.310;8.134;2024-03-08T12:38:52;7.50;99.90
3300;DHT22;1662;49.310;8.134;2024-03-08T12:41:20;7.50;99.90
3300;DHT22;1662;49.310;8.134;2024-03-08T12:43:47;7.50;99.90
3300;DHT22;1662;49.310;8.134;2024-03-08T12:46:20;7.60;99.90
3300;DHT22;1662;49.310;8.134;2024-03-08T12:48:46;7.80;99.90
3300;DHT22;1662;49.310;8.134;2024-03-08T12:51:16;8.00;99.90
3300;DHT22;1662;49.310;8.134;2024-03-08T12:53:43;8.10;99.90
3300;DHT22;1662;49.310;8.134;2024-03-08T12:56:10;8.40;99.90
3300;DHT22;1662;49.310;8.134;2024-03-08T12:58:36;8.80;99.90
3300;DHT22;1662;49.310;8.134;2024-03-08T13:01:03;9.20;99.90
3300;DHT22;1662;49.310;8.134;2024-03-08T13:03:35;9.50;99.90
3300;DHT22;1662;49.310;8.134;2024-03-08T13:06:05;9.70;99.90
3300;DHT22;1662;49.310;8.134;2024-03-08T13:08:37;9.70;99.90
3300;DHT22;1662;49.310;8.134;2024-03-08T13:11:09;9.70;99.90
3300;DHT22;1662;49.310;8.134;2024-03-08T13:13:40;9.60;99.90
3300;DHT22;1662;49.310;8.134;2024-03-08T13:16:06;9.50;99.90
3300;DHT22;1662;49.310;8.134;2024-03-08T13:18:34;9.60;99.90
3300;DHT22;1662;49.310;8.134;2024-03-08T13:21:00;9.70;99.90
3300;DHT22;1662;49.310;8.134;2024-03-08T13:23:30;10.00;99.90
3300;DHT22;1662;49.310;8.134;2024-03-08T13:25:58;10.40;99.90
3300;DHT22;1662;49.310;8.134;2024-03-08T13:28:25;10.40;99.90
3300;DHT22;1662;49.310;8.134;2024-03-08T13:30:55;10.60;99.90
3300;DHT22;1662;49.310;8.134;2024-03-08T13:33:23;10.90;99.90
3300;DHT22;1662;49.310;8.134;2024-03-08T13:35:49;11.20;99.90
3300;DHT22;1662;49.310;8.134;2024-03-08T13:38:16;11.50;99.90
3300;DHT22;1662;49.310;8.134;2024-03-08T13:40:43;11.70;99.90
3300;DHT22;1662;49.310;8.134;2024-03-08T13:43:09;11.90;99.90
3300;DHT22;1662;49.310;8.134;2024-03-08T13:45:35;11.90;99.90
3300;DHT22;1662;49.310;8.134;2024-03-08T13:48:04;11.90;99.90
3300;DHT22;1662;49.310;8.134;2024-03-08T13:50:30;12.10;99.90
3300;DHT22;1662;49.310;8.134;2024-03-08T13:52:56;12.30;99.90
3300;DHT22;1662;49.310;8.134;2024-03-08T13:55:22;12.50;99.90
3300;DHT22;1662;49.310;8.134;2024-03-08T13:57:48;12.70;99.90
3300;DHT22;1662;49.310;8.134;2024-03-08T14:00:15;12.90;99.90
3300;DHT22;1662;49.310;8.134;2024-03-08T14:02:41;13.00;99.90
3300;DHT22;1662;49.310;8.134;2024-03-08T14:05:07;13.20;99.90
3300;DHT22;1662;49.310;8.134;2024-03-08T14:07:35;13.30;99.90
3300;DHT22;1662;49.310;8.134;2024-03-08T14:10:01;13.40;99.90
3300;DHT22;1662;49.310;8.134;2024-03-08T14:12:26;13.40;99.90
3300;DHT22;1662;49.310;8.134;2024-03-08T14:14:55;13.50;99.90
3300;DHT22;1662;49.310;8.134;2024-03-08T14:17:20;13.70;99.90
3300;DHT22;1662;49.310;8.134;2024-03-08T14:19:46;13.90;99.90
3300;DHT22;1662;49.310;8.134;2024-03-08T14:22:12;13.90;99.90
3300;DHT22;1662;49.310;8.134;2024-03-08T14:24:40;13.90;99.90
3300;DHT22;1662;49.310;8.134;2024-03-08T14:27:08;13.90;99.90
3300;DHT22;1662;49.310;8.134;2024-03-08T14:29:35;14.00;99.90
3300;DHT22;1662;49.310;8.134;2024-03-08T14:32:00;14.10;99.90
3300;DHT22;1662;49.310;8.134;2024-03-08T14:34:28;14.30;99.90
3300;DHT22;1662;49.310;8.134;2024-03-08T14:36:56;14.50;99.90
3300;DHT22;1662;49.310;8.134;2024-03-08T14:39:22;14.80;99.90
3300;DHT22;1662;49.310;8.134;2024-03-08T14:41:52;14.90;99.90
3300;DHT22;1662;49.310;8.134;2024-03-08T14:44:20;15.00;99.90
3300;DHT22;1662;49.310;8.134;2024-03-08T14:46:46;15.10;99.90
3300;DHT22;1662;49.310;8.134;2024-03-08T14:49:12;15.20;99.90
3300;DHT22;1662;49.310;8.134;2024-03-08T14:51:38;15.30;99.90
3300;DHT22;1662;49.310;8.134;2024-03-08T14:54:03;15.30;99.90
3300;DHT22;1662;49.310;8.134;2024-03-08T14:56:32;15.30;99.90
3300;DHT22;1662;49.310;8.134;2024-03-08T14:58:58;15.30;99.90
3300;DHT22;1662;49.310;8.134;2024-03-08T15:01:26;15.40;99.90
3300;DHT22;1662;49.310;8.134;2024-03-08T15:03:55;15.50;99.90
3300;DHT22;1662;49.310;8.134;2024-03-08T15:06:23;15.60;99.90
3300;DHT22;1662;49.310;8.134;2024-03-08T15:08:50;15.70;99.90
3300;DHT22;1662;49.310;8.134;2024-03-08T15:11:17;15.80;99.90
3300;DHT22;1662;49.310;8.134;2024-03-08T15:13:50;15.80;99.90
3300;DHT22;1662;49.310;8.134;2024-03-08T15:16:19;15.70;99.90
3300;DHT22;1662;49.310;8.134;2024-03-08T15:18:48;15.80;99.90
3300;DHT22;1662;49.310;8.134;2024-03-08T15:21:17;15.70;99.90
3300;DHT22;1662;49.310;8.134;2024-03-08T15:23:46;15.60;99.90
3300;DHT22;1662;49.310;8.134;2024-03-08T15:26:22;15.30;99.90
3300;DHT22;1662;49.310;8.134;2024-03-08T15:28:48;15.30;99.90
3300;DHT22;1662;49.310;8.134;2024-03-08T15:31:17;15.30;99.90
3300;DHT22;1662;49.310;8.134;2024-03-08T15:33:46;15.30;99.90
3300;DHT22;1662;49.310;8.134;2024-03-08T15:36:17;15.10;99.90
3300;DHT22;1662;49.310;8.134;2024-03-08T15:38:46;15.10;99.90
3300;DHT22;1662;49.310;8.134;2024-03-08T15:41:12;15.10;99.90
3300;DHT22;1662;49.310;8.134;2024-03-08T15:43:41;15.10;99.90
3300;DHT22;1662;49.310;8.134;2024-03-08T15:46:07;15.20;99.90
3300;DHT22;1662;49.310;8.134;2024-03-08T15:48:34;15.10;99.90
3300;DHT22;1662;49.310;8.134;2024-03-08T15:51:03;15.10;99.90
3300;DHT22;1662;49.310;8.134;2024-03-08T15:53:34;15.00;99.90
3300;DHT22;1662;49.310;8.134;2024-03-08T15:56:04;14.80;99.90
3300;DHT22;1662;49.310;8.134;2024-03-08T15:58:34;14.70;99.90
3300;DHT22;1662;49.310;8.134;2024-03-08T16:01:01;14.60;99.90
3300;DHT22;1662;49.310;8.134;2024-03-08T16:03:29;14.40;99.90
3300;DHT22;1662;49.310;8.134;2024-03-08T16:05:56;14.30;99.90
3300;DHT22;1662;49.310;8.134;2024-03-08T16:08:23;14.20;99.90
3300;DHT22;1662;49.310;8.134;2024-03-08T16:10:53;14.00;99.90
3300;DHT22;1662;49.310;8.134;2024-03-08T16:13:21;13.80;99.90
3300;DHT22;1662;49.310;8.134;2024-03-08T16:15:48;13.70;99.90
3300;DHT22;1662;49.310;8.134;2024-03-08T16:18:14;13.60;99.90
3300;DHT22;1662;49.310;8.134;2024-03-08T16:20:40;13.50;99.90
3300;DHT22;1662;49.310;8.134;2024-03-08T16:23:07;13.40;99.90
3300;DHT22;1662;49.310;8.134;2024-03-08T16:25:36;13.30;99.90
3300;DHT22;1662;49.310;8.134;2024-03-08T16:28:02;13.30;99.90
3300;DHT22;1662;49.310;8.134;2024-03-08T16:30:36;13.20;99.90
3300;DHT22;1662;49.310;8.134;2024-03-08T16:33:02;13.30;99.90